• Join FlightAware (Why Join?)
  • Login
  • US Flag 
07:47PM EST


 

Airport Tracker/Info


-or-


 

Live Flight TrackerFlight Track Log ✈ KEE202 ✈ 21-May-2013 ✈ CYAV - CJK2

Flight Track Log - Related Links

Times and Time Zones

All times are in EDT time to prevent confusion due to time zone crossing. See the KEE202 flight status page for this flight to view local times or setup timezone preferences in your user account.

Time Position Orientation Groundspeed Altitude Reporting Facility
EDT Latitude Longitude Course Direction KTS MPH feet Rate Location/Type
06:51AM 50.0833 -97.0167 360° North 120 138 1,800  Level Winnipeg Center
06:52AM 50.1167 -97.0167 360° North 130 150 2,800 900 Climbing Winnipeg Center
06:53AM 50.1500 -97.0167 360° North 130 150 3,600 900 Climbing Winnipeg Center
06:54AM 50.2000 -97.0167 360° North 130 150 4,600 900 Climbing Winnipeg Center
06:55AM 50.2333 -97.0000 18° North 130 150 5,400 840 Climbing Winnipeg Center
06:56AM 50.2667 -97.0000 360° North 140 161 6,300 840 Climbing Winnipeg Center
06:57AM 50.3000 -96.9667 33° Northeast 140 161 7,100 900 Climbing Winnipeg Center
06:58AM 50.3333 -96.9667 360° North 140 161 8,100 900 Climbing Winnipeg Center
06:59AM 50.3833 -96.9667 360° North 140 161 8,900 420 Climbing Winnipeg Center
07:00AM 50.4167 -96.9333 33° Northeast 160 184 9,000  Climbing Winnipeg Center
07:01AM 50.4667 -96.9333 360° North 160 184 9,000  Level Winnipeg Center
07:02AM 50.5167 -96.9333 360° North 170 196 9,100  Climbing Winnipeg Center
07:03AM 50.5667 -96.9167 12° North 170 196 9,000 -60 Descending Winnipeg Center
07:04AM 50.6000 -96.9167 360° North 170 196 9,000  Level Winnipeg Center
07:05AM 50.6500 -96.9167 360° North 180 207 9,000  Level Winnipeg Center
07:06AM 50.7000 -96.9167 360° North 180 207 9,000  Level Winnipeg Center
07:07AM 50.7500 -96.8833 23° Northeast 170 196 9,000  Level Winnipeg Center
07:08AM 50.8000 -96.8833 360° North 170 196 9,000  Level Winnipeg Center
07:09AM 50.8500 -96.8667 12° North 170 196 9,000  Level Winnipeg Center
07:10AM 50.9000 -96.8667 360° North 170 196 9,000  Level Winnipeg Center
07:11AM 50.9333 -96.8333 32° Northeast 170 196 9,000  Level Winnipeg Center
07:12AM 50.9833 -96.8333 360° North 170 196 9,000  Level Winnipeg Center
07:13AM 51.0333 -96.8333 360° North 180 207 9,000  Level Winnipeg Center
07:14AM 51.0833 -96.8333 360° North 180 207 9,000  Level Winnipeg Center
07:15AM 51.1333 -96.8000 23° Northeast 180 207 9,000 -120 Level Winnipeg Center
07:16AM 51.1833 -96.8000 360° North 180 207 8,800 -120 Descending Winnipeg Center
07:17AM 51.2333 -96.8000 360° North 180 207 8,800 -60 Level Winnipeg Center
07:18AM 51.2833 -96.7833 12° North 180 207 8,700 -60 Descending Winnipeg Center
07:19AM 51.3333 -96.7833 360° North 180 207 8,700  Level Winnipeg Center
07:20AM 51.3833 -96.7833 360° North 180 207 8,800  Climbing Winnipeg Center
07:21AM 51.4333 -96.7500 23° Northeast 180 207 8,800  Level Winnipeg Center
07:22AM 51.4833 -96.7500 360° North 180 207 8,800  Level Winnipeg Center
07:23AM 51.5333 -96.7500 360° North 180 207 8,800  Level Winnipeg Center
07:24AM 51.5833 -96.7167 22° Northeast 180 207 8,800  Level Winnipeg Center
07:25AM 51.6333 -96.7167 360° North 180 207 8,800  Level Winnipeg Center
07:26AM 51.6833 -96.7167 360° North 180 207 8,800  Level Winnipeg Center
07:27AM 51.7167 -96.7000 17° North 180 207 8,800  Level Winnipeg Center
07:28AM 51.7833 -96.7000 360° North 180 207 8,800  Level Winnipeg Center
07:29AM 51.8167 -96.7000 360° North 180 207 8,800  Level Winnipeg Center
07:30AM 51.8833 -96.6667 17° North 180 207 8,800  Level Winnipeg Center
07:31AM 51.9167 -96.6667 360° North 180 207 8,800  Level Winnipeg Center
07:32AM 51.9667 -96.6333 22° Northeast 180 207 8,800  Level Winnipeg Center
07:33AM 52.0167 -96.6333 360° North 180 207 8,800 120 Level Winnipeg Center
07:34AM 52.0667 -96.6333 360° North 180 207 9,100 120 Climbing Winnipeg Center
07:35AM 52.1167 -96.6167 12° North 180 207 9,100  Level Winnipeg Center
07:36AM 52.1667 -96.6167 360° North 170 196 9,100  Level Winnipeg Center
07:38AM 52.2364 -96.6063 North  Level FlightAware Approximate
07:45AM 52.5771 -96.5514 North  Level FlightAware Approximate
07:46AM 52.6256 -96.5418 North  Level FlightAware Approximate
07:47AM 52.6741 -96.5321 North  Level FlightAware Approximate
07:48AM 52.7227 -96.5224 North  Level FlightAware Approximate
07:49AM 52.7712 -96.5127 North  Level FlightAware Approximate
07:50AM 52.8197 -96.5030 North  Level FlightAware Approximate
07:51AM 52.8682 -96.4932 North  Level FlightAware Approximate
07:52AM 52.9168 -96.4835 North  Level FlightAware Approximate
07:53AM 52.9653 -96.4737 North  Level FlightAware Approximate
07:54AM 53.0137 -96.4632 North  Level FlightAware Approximate
07:55AM 53.0621 -96.4512 North  Level FlightAware Approximate
07:56AM 53.1104 -96.4391 North  Level FlightAware Approximate
07:57AM 53.1589 -96.4282 North  Level FlightAware Approximate
07:58AM 53.2074 -96.4185 North  Level FlightAware Approximate
07:59AM 53.2559 -96.4088 North  Level FlightAware Approximate
08:00AM 53.3045 -96.4000 North  Level FlightAware Approximate
08:01AM 53.3532 -96.3984 17° North  Level FlightAware Approximate
08:02AM 53.4007 -96.3799 North  Level FlightAware Approximate
08:03AM 53.4492 -96.3702 North  Level FlightAware Approximate
08:04AM 53.4980 -96.3667 North  Level FlightAware Approximate
08:05AM 53.5167 -96.3667 North  Level FlightAware Approximate
08:06AM 53.5167 -96.3667 North  Level FlightAware Approximate
08:07AM 53.5167 -96.3667 North  Level FlightAware Approximate
08:08AM 53.5167 -96.3667 North  Level FlightAware Approximate
08:09AM 53.5167 -96.3667 North  Level FlightAware Approximate
08:10AM 53.5167 -96.3667 North  Level FlightAware Approximate
08:11AM 53.5167 -96.3667 North  Level FlightAware Approximate
08:12AM 53.5167 -96.3667 North  Level FlightAware Approximate
08:13AM 53.5167 -96.3667 North  Level FlightAware Approximate
08:14AM 53.5167 -96.3667 North  Level FlightAware Approximate
08:15AM 53.5167 -96.3667 North  Level FlightAware Approximate
08:16AM 53.5167 -96.3667 North  Level FlightAware Approximate
08:17AM 53.5167 -96.3667 North  Level FlightAware Approximate
08:18AM 53.5167 -96.3667 North  Level FlightAware Approximate